createdAt,value
2019-04-10T00:06:18.973Z,6.77
2019-04-10T00:11:43.191Z,6.33
2019-04-10T00:14:24.047Z,6.07
2019-04-10T00:17:04.807Z,5.43
2019-04-10T00:19:45.520Z,4.47
2019-04-10T00:22:26.335Z,4.33
2019-04-10T00:25:06.715Z,4.90
2019-04-10T00:27:47.175Z,5.80
2019-04-10T00:30:27.503Z,4.37
2019-04-10T00:33:08.217Z,4.00
2019-04-10T00:35:48.441Z,4.13
2019-04-10T00:38:16.121Z,4.77
2019-04-10T00:41:03.885Z,4.53
2019-04-10T00:43:52.139Z,5.37
2019-04-10T00:46:32.542Z,4.83
2019-04-10T00:49:13.494Z,5.03
2019-04-10T00:51:53.814Z,4.10
2019-04-10T00:54:33.809Z,4.97
2019-04-10T00:57:14.920Z,4.97
2019-04-10T00:59:56.815Z,4.87
2019-04-10T01:02:37.259Z,5.47
2019-04-10T01:05:17.355Z,5.17
2019-04-10T01:07:57.542Z,4.73
2019-04-10T01:10:38.750Z,5.20
2019-04-10T01:13:18.850Z,5.27
2019-04-10T01:15:58.921Z,4.83
2019-04-10T01:18:39.517Z,5.87
2019-04-10T01:21:19.984Z,5.00
2019-04-10T01:24:23.694Z,4.57
2019-04-10T01:27:03.493Z,5.10
2019-04-10T01:29:43.964Z,5.20
2019-04-10T01:32:24.538Z,5.30
2019-04-10T01:35:05.692Z,4.77
2019-04-10T01:37:52.088Z,4.80
2019-04-10T01:40:27.575Z,4.77
2019-04-10T01:43:12.821Z,6.00
2019-04-10T01:45:49.730Z,4.50
2019-04-10T01:48:30.165Z,4.23
2019-04-10T01:51:10.813Z,5.97
2019-04-10T01:53:50.863Z,4.57
2019-04-10T01:56:34.633Z,4.13
2019-04-10T01:59:13.849Z,4.40
2019-04-10T02:02:14.635Z,4.30
2019-04-10T02:04:57.134Z,4.77
2019-04-10T02:07:38.194Z,4.30
2019-04-10T02:10:18.837Z,5.80
2019-04-10T02:12:59.072Z,5.20
2019-04-10T02:15:39.685Z,5.40
2019-04-10T02:18:19.691Z,5.67
2019-04-10T02:20:59.746Z,6.10
2019-04-10T02:23:40.637Z,6.77
2019-04-10T02:26:21.323Z,6.93
2019-04-10T02:29:01.734Z,6.10
2019-04-10T02:31:41.957Z,6.43
2019-04-10T02:34:23.249Z,4.77
2019-04-10T02:37:03.338Z,4.60
2019-04-10T02:39:47.723Z,4.07
2019-04-10T02:42:26.620Z,4.83
2019-04-10T02:45:08.297Z,5.00
2019-04-10T02:47:48.507Z,4.17
2019-04-10T02:50:16.605Z,4.10
2019-04-10T02:53:25.625Z,4.80
2019-04-10T02:56:13.622Z,4.77
2019-04-10T02:58:56.520Z,4.73
2019-04-10T03:01:37.935Z,5.50
2019-04-10T03:04:18.424Z,5.20
2019-04-10T03:06:59.812Z,5.20
2019-04-10T03:09:54.859Z,5.00
2019-04-10T03:12:24.531Z,5.27
2019-04-10T03:15:08.598Z,4.87
2019-04-10T03:17:50.993Z,5.50
2019-04-10T03:20:32.101Z,8.80
2019-04-10T03:23:12.132Z,20.53
2019-04-10T03:25:53.031Z,7.73
2019-04-10T03:28:33.546Z,6.37
2019-04-10T03:31:15.740Z,5.33
2019-04-10T03:34:16.778Z,4.40
2019-04-10T03:36:57.978Z,5.00
2019-04-10T03:39:38.515Z,4.53
2019-04-10T03:42:18.947Z,5.63
2019-04-10T03:44:59.414Z,5.23
2019-04-10T03:47:39.733Z,4.93
2019-04-10T03:50:19.474Z,4.67
2019-04-10T03:53:00.184Z,5.20
2019-04-10T03:55:40.976Z,4.10
2019-04-10T03:58:21.308Z,5.00
2019-04-10T04:01:01.467Z,6.07
2019-04-10T04:03:42.582Z,5.83
2019-04-10T04:06:22.482Z,7.97
2019-04-10T04:12:04.483Z,13.77
2019-04-10T04:14:44.598Z,17.00
2019-04-10T04:17:24.599Z,18.03
2019-04-10T04:20:04.608Z,18.20
2019-04-10T04:22:45.984Z,15.03
2019-04-10T04:25:26.026Z,16.77
2019-04-10T04:28:06.677Z,16.07
2019-04-10T04:30:51.715Z,11.93
2019-04-10T04:33:30.002Z,12.77
2019-04-10T04:36:10.306Z,12.40
2019-04-10T04:38:51.403Z,10.97
2019-04-10T04:41:31.894Z,10.77
2019-04-10T04:44:12.378Z,11.73
2019-04-10T04:46:52.725Z,13.63
2019-04-10T04:49:33.605Z,10.77
2019-04-10T04:52:14.279Z,10.80
2019-04-10T04:54:55.243Z,10.27
2019-04-10T04:57:37.834Z,10.67
2019-04-10T05:00:17.418Z,10.10
2019-04-10T05:02:58.215Z,10.57
2019-04-10T05:05:39.130Z,10.47
2019-04-10T05:08:19.674Z,12.17
2019-04-10T05:11:00.163Z,9.63
2019-04-10T05:13:42.399Z,9.93
2019-04-10T05:16:22.838Z,12.50
2019-04-10T05:18:50.468Z,11.17
2019-04-10T05:21:37.565Z,9.07
2019-04-10T05:24:24.614Z,9.87
2019-04-10T05:27:05.716Z,21.50
2019-04-10T05:29:47.084Z,19.60
2019-04-10T05:32:27.378Z,12.13
2019-04-10T05:35:08.978Z,13.70
2019-04-10T05:37:49.967Z,12.00
2019-04-10T05:40:30.145Z,13.13
2019-04-10T05:43:10.062Z,12.27
2019-04-10T05:45:50.683Z,15.20
2019-04-10T05:48:31.592Z,14.67
2019-04-10T05:51:12.558Z,19.63
2019-04-10T05:53:53.688Z,16.47
2019-04-10T05:56:34.344Z,16.37
2019-04-10T05:59:14.685Z,16.30
2019-04-10T06:01:54.746Z,8.97
2019-04-10T06:04:35.679Z,8.03
2019-04-10T06:07:16.966Z,7.90
2019-04-10T06:10:01.994Z,14.50
2019-04-10T06:12:40.066Z,13.37
2019-04-10T06:15:21.059Z,9.43
2019-04-10T06:18:01.159Z,11.30
2019-04-10T06:20:41.761Z,9.23
2019-04-10T06:23:21.458Z,11.67
2019-04-10T06:26:03.434Z,10.30
2019-04-10T06:28:43.445Z,9.53
2019-04-10T06:31:23.353Z,8.67
2019-04-10T06:34:04.589Z,10.67
2019-04-10T06:36:45.919Z,10.23
2019-04-10T06:39:26.807Z,11.13
2019-04-10T06:42:06.720Z,9.57
2019-04-10T06:44:46.797Z,9.43
2019-04-10T06:47:26.849Z,13.33
2019-04-10T06:50:07.003Z,12.27
2019-04-10T06:52:47.191Z,14.73
2019-04-10T06:55:30.178Z,14.23
2019-04-10T06:58:10.207Z,14.63
2019-04-10T07:00:53.279Z,13.30
2019-04-10T07:03:46.943Z,16.37
2019-04-10T07:06:19.872Z,14.93
2019-04-10T07:08:57.157Z,16.87
2019-04-10T07:11:38.658Z,16.43
2019-04-10T07:14:18.967Z,13.13
2019-04-10T07:17:05.017Z,12.17
2019-04-10T07:19:43.661Z,13.43
2019-04-10T07:22:23.575Z,28.77
2019-04-10T07:25:04.726Z,35.50
2019-04-10T07:27:45.919Z,38.73
2019-04-10T07:30:26.713Z,43.03
2019-04-10T07:33:05.847Z,43.03
2019-04-10T07:35:55.163Z,43.30
2019-04-10T07:38:35.019Z,42.20
2019-04-10T07:41:21.227Z,41.40
2019-04-10T07:43:57.315Z,50.27
2019-04-10T07:46:38.215Z,49.07
2019-04-10T07:49:19.431Z,52.87
2019-04-10T07:52:01.918Z,53.97
2019-04-10T07:54:44.569Z,52.60
2019-04-10T07:57:24.554Z,51.33
2019-04-10T08:00:06.675Z,51.37
2019-04-10T08:02:46.989Z,51.30
2019-04-10T08:08:40.422Z,53.23
2019-04-10T08:11:20.407Z,53.90
2019-04-10T08:14:01.359Z,50.97
2019-04-10T08:16:41.608Z,50.67
2019-04-10T08:19:21.846Z,47.87
2019-04-10T08:22:01.751Z,48.80
2019-04-10T08:24:45.741Z,46.90
2019-04-10T08:27:25.612Z,46.87
2019-04-10T08:30:07.397Z,44.90
2019-04-10T08:32:57.065Z,48.77
2019-04-10T08:35:31.500Z,49.40
2019-04-10T08:38:11.489Z,48.93
2019-04-10T08:40:52.319Z,47.57
2019-04-10T08:43:32.557Z,43.43
2019-04-10T08:46:12.919Z,43.27
2019-04-10T08:48:52.493Z,43.70
2019-04-10T08:51:33.183Z,43.50
2019-04-10T08:54:14.116Z,39.93
2019-04-10T08:56:52.633Z,42.10
2019-04-10T08:59:40.212Z,35.30
2019-04-10T09:02:21.918Z,36.77
2019-04-10T09:05:01.740Z,37.53
2019-04-10T09:07:41.557Z,39.60
2019-04-10T09:10:22.647Z,38.43
2019-04-10T09:13:04.171Z,35.33
2019-04-10T09:15:44.034Z,33.93
2019-04-10T09:18:25.214Z,35.70
2019-04-10T09:21:05.502Z,38.03
2019-04-10T09:23:52.447Z,34.63
2019-04-10T09:26:28.538Z,35.10
2019-04-10T09:29:08.837Z,34.70
2019-04-10T09:31:50.244Z,34.40
2019-04-10T09:34:18.009Z,37.70
2019-04-10T09:37:06.003Z,35.30
2019-04-10T09:39:55.371Z,34.00
2019-04-10T09:42:36.577Z,33.37
2019-04-10T09:45:17.791Z,34.47
2019-04-10T09:47:57.937Z,35.33
2019-04-10T09:50:37.735Z,34.40
2019-04-10T09:53:19.029Z,32.07
2019-04-10T09:55:46.991Z,31.40
2019-04-10T09:58:34.361Z,31.97
2019-04-10T10:01:22.067Z,30.23
2019-04-10T10:03:50.901Z,31.10
2019-04-10T10:06:26.059Z,32.47
2019-04-10T10:09:08.384Z,31.10
2019-04-10T10:11:49.761Z,31.00
2019-04-10T10:14:31.927Z,30.10
2019-04-10T10:17:13.170Z,31.53
2019-04-10T10:19:53.847Z,28.70
2019-04-10T10:22:34.393Z,28.67
2019-04-10T10:25:15.228Z,29.00
2019-04-10T10:27:56.497Z,27.77
2019-04-10T10:33:50.030Z,25.67
2019-04-10T10:36:40.820Z,26.40
2019-04-10T10:42:13.865Z,25.53
2019-04-10T10:44:54.403Z,25.63
2019-04-10T10:47:34.285Z,26.00
2019-04-10T10:50:15.178Z,24.23
2019-04-10T10:52:55.615Z,25.17
2019-04-10T10:55:35.819Z,26.10
2019-04-10T10:58:15.517Z,26.97
2019-04-10T11:00:55.739Z,29.77
2019-04-10T11:03:35.649Z,26.70
2019-04-10T11:06:16.735Z,28.10
2019-04-10T11:08:57.856Z,25.63
2019-04-10T11:11:25.489Z,27.63
2019-04-10T11:14:13.224Z,28.27
2019-04-10T11:16:56.115Z,27.43
2019-04-10T11:19:35.487Z,23.33
2019-04-10T11:22:21.800Z,21.83
2019-04-10T11:24:58.121Z,22.20
2019-04-10T11:27:25.798Z,23.00
2019-04-10T11:30:13.574Z,20.27
2019-04-10T11:33:02.610Z,20.30
2019-04-10T11:35:43.935Z,21.77
2019-04-10T11:38:22.093Z,19.27
2019-04-10T11:40:52.071Z,20.70
2019-04-10T11:43:39.322Z,21.03
2019-04-10T11:46:08.116Z,20.50
2019-04-10T11:48:55.576Z,19.67
2019-04-10T11:51:46.152Z,21.10
2019-04-10T11:54:28.588Z,20.77
2019-04-10T11:57:09.952Z,22.03
2019-04-10T11:59:50.247Z,22.03
2019-04-10T12:02:32.097Z,22.17
2019-04-10T12:05:18.500Z,21.60
2019-04-10T12:13:19.929Z,22.30
2019-04-10T12:16:00.995Z,24.17
2019-04-10T12:18:41.163Z,25.00
2019-04-10T12:21:21.870Z,25.87
2019-04-10T12:24:01.692Z,27.97
2019-04-10T12:26:42.338Z,25.60
2019-04-10T12:29:22.573Z,27.00
2019-04-10T12:32:04.194Z,26.00
2019-04-10T12:34:44.506Z,24.93
2019-04-10T12:37:24.216Z,26.63
2019-04-10T12:40:05.491Z,28.03
2019-04-10T12:42:46.136Z,29.33
2019-04-10T12:45:26.432Z,30.77
2019-04-10T12:48:06.418Z,32.87
2019-04-10T12:50:47.461Z,30.33
2019-04-10T12:53:27.583Z,29.60
2019-04-10T12:55:57.747Z,34.47
2019-04-10T12:58:46.698Z,30.00
2019-04-10T13:01:28.956Z,29.07
2019-04-10T13:04:08.789Z,35.80
2019-04-10T13:06:51.484Z,35.83
2019-04-10T13:09:31.769Z,40.27
2019-04-10T13:12:13.177Z,38.53
2019-04-10T13:14:53.030Z,39.63
2019-04-10T13:17:20.699Z,39.93
2019-04-10T13:23:16.367Z,40.87
2019-04-10T13:26:01.796Z,39.10
2019-04-10T13:28:41.496Z,38.37
2019-04-10T13:31:21.487Z,39.57
2019-04-10T13:34:01.397Z,40.20
2019-04-10T13:36:42.198Z,38.27
2019-04-10T13:39:22.450Z,36.57
2019-04-10T13:42:03.207Z,35.70
2019-04-10T13:44:42.831Z,36.30
2019-04-10T13:47:23.696Z,27.60
2019-04-10T13:50:04.263Z,26.33
2019-04-10T13:52:46.714Z,26.17
2019-04-10T13:55:28.356Z,28.10
2019-04-10T13:58:08.816Z,29.23
2019-04-10T14:00:49.764Z,33.23
2019-04-10T14:03:30.144Z,33.53
2019-04-10T14:06:11.637Z,33.97
2019-04-10T14:09:10.946Z,36.73
2019-04-10T14:11:21.532Z,36.27
2019-04-10T14:14:08.565Z,35.43
2019-04-10T14:16:48.870Z,38.23
2019-04-10T14:19:29.875Z,41.53
2019-04-10T14:22:09.948Z,41.23
2019-04-10T14:24:51.165Z,39.53
2019-04-10T14:27:32.225Z,36.77
2019-04-10T14:30:18.794Z,37.90
2019-04-10T14:32:59.313Z,33.30
2019-04-10T14:35:39.289Z,33.87
2019-04-10T14:38:19.372Z,34.03
2019-04-10T14:40:59.378Z,34.10
2019-04-10T14:43:39.744Z,34.30
2019-04-10T14:46:20.684Z,33.37
2019-04-10T14:49:00.723Z,32.33
2019-04-10T14:51:40.840Z,32.23
2019-04-10T14:54:21.717Z,32.77
2019-04-10T14:57:02.343Z,33.53
2019-04-10T14:59:42.945Z,31.37
2019-04-10T15:02:24.358Z,33.13
2019-04-10T15:04:53.026Z,36.20
2019-04-10T15:07:41.041Z,33.13
2019-04-10T15:10:20.689Z,31.97
2019-04-10T15:13:09.211Z,34.23
2019-04-10T15:15:44.812Z,38.50
2019-04-10T15:18:24.841Z,36.10
2019-04-10T15:21:04.941Z,36.40
2019-04-10T15:23:44.926Z,37.03
2019-04-10T15:26:25.954Z,35.40
2019-04-10T15:29:06.066Z,33.13
2019-04-10T15:31:46.265Z,33.07
2019-04-10T15:34:28.210Z,32.63
2019-04-10T15:37:08.891Z,34.00
2019-04-10T15:39:49.633Z,34.40
2019-04-10T15:42:30.215Z,33.67
2019-04-10T15:45:10.615Z,33.60
2019-04-10T15:47:54.157Z,37.03
2019-04-10T15:50:32.673Z,33.83
2019-04-10T15:53:00.288Z,36.63
2019-04-10T15:55:40.654Z,35.40
2019-04-10T15:58:21.523Z,34.77
2019-04-10T16:00:50.224Z,34.33
2019-04-10T16:03:38.688Z,34.87
2019-04-10T16:06:20.886Z,33.73
2019-04-10T16:09:01.062Z,34.83
2019-04-10T16:12:06.153Z,39.17
2019-04-10T16:14:46.667Z,36.67
2019-04-10T16:20:37.382Z,38.00
2019-04-10T16:23:21.846Z,38.60
2019-04-10T16:26:02.862Z,40.27
2019-04-10T16:28:43.087Z,41.17
2019-04-10T16:31:23.541Z,40.63
2019-04-10T16:34:05.125Z,45.33
2019-04-10T16:36:45.810Z,43.43
2019-04-10T16:39:24.317Z,45.23
2019-04-10T16:45:38.353Z,43.77
2019-04-10T16:48:18.916Z,43.13
2019-04-10T16:50:59.672Z,42.30
2019-04-10T16:53:39.747Z,40.87
2019-04-10T16:56:23.376Z,40.53
2019-04-10T16:59:03.279Z,43.33
2019-04-10T17:01:43.491Z,42.60
2019-04-10T17:04:23.527Z,44.17
2019-04-10T17:07:03.688Z,43.57
2019-04-10T17:09:43.872Z,44.20
2019-04-10T17:12:25.662Z,40.90
2019-04-10T17:15:06.167Z,44.97
2019-04-10T17:17:46.443Z,41.53
2019-04-10T17:20:27.033Z,43.47
2019-04-10T17:23:08.066Z,40.90
2019-04-10T17:25:48.756Z,42.17
2019-04-10T17:28:28.453Z,41.30
2019-04-10T17:31:10.942Z,42.70
2019-04-10T17:33:50.641Z,45.13
2019-04-10T17:39:43.885Z,45.03
2019-04-10T17:42:24.170Z,47.07
2019-04-10T17:45:04.602Z,49.80
2019-04-10T17:47:45.122Z,50.50
2019-04-10T17:50:25.650Z,46.63
2019-04-10T17:52:53.503Z,51.00
2019-04-10T17:55:41.884Z,53.90
2019-04-10T17:58:29.695Z,53.70
2019-04-10T18:01:13.092Z,56.37
2019-04-10T18:03:57.226Z,58.33
2019-04-10T18:06:35.459Z,59.50
2019-04-10T18:09:07.618Z,58.57
2019-04-10T18:11:54.661Z,58.63
2019-04-10T18:14:44.023Z,63.07
2019-04-10T18:17:24.926Z,68.77
2019-04-10T18:20:06.337Z,71.23
2019-04-10T18:22:46.866Z,67.30
2019-04-10T18:25:27.691Z,72.67
2019-04-10T18:27:55.402Z,72.23
2019-04-10T18:30:42.473Z,71.67
2019-04-10T18:33:30.750Z,69.67
2019-04-10T18:36:11.274Z,70.57
2019-04-10T18:38:51.505Z,69.17
2019-04-10T18:44:31.309Z,72.37
2019-04-10T18:47:11.405Z,72.47
2019-04-10T18:49:52.331Z,71.10
2019-04-10T18:52:33.104Z,71.20
2019-04-10T18:55:12.702Z,70.03
2019-04-10T18:57:52.978Z,75.27
2019-04-10T19:00:52.518Z,75.40
2019-04-10T19:03:56.873Z,77.67
2019-04-10T19:06:53.131Z,71.63
2019-04-10T19:09:36.844Z,79.53
2019-04-10T19:12:17.205Z,78.67
2019-04-10T19:14:58.307Z,81.20
2019-04-10T19:17:39.037Z,77.60
2019-04-10T19:20:20.569Z,82.03
2019-04-10T19:23:01.354Z,79.13
2019-04-10T19:25:30.239Z,84.73
2019-04-10T19:28:28.027Z,84.07
2019-04-10T19:31:11.061Z,85.63
2019-04-10T19:33:51.197Z,90.80
2019-04-10T19:36:34.297Z,91.23
2019-04-10T19:39:14.157Z,91.63
2019-04-10T19:41:55.632Z,95.07
2019-04-10T19:44:35.469Z,92.20
2019-04-10T19:47:16.233Z,94.00
2019-04-10T19:49:57.598Z,97.87
2019-04-10T19:52:38.370Z,104.30
2019-04-10T19:55:18.366Z,104.87
2019-04-10T20:00:58.986Z,109.27
2019-04-10T20:03:39.678Z,106.30
2019-04-10T20:06:22.108Z,110.60
2019-04-10T20:09:01.663Z,111.37
2019-04-10T20:11:46.292Z,111.83
2019-04-10T20:14:24.155Z,113.50
2019-04-10T20:17:05.949Z,112.20
2019-04-10T20:19:46.760Z,111.90
2019-04-10T20:22:28.227Z,117.23
2019-04-10T20:25:10.280Z,120.30
2019-04-10T20:27:50.290Z,116.93
2019-04-10T20:30:32.756Z,115.60
2019-04-10T20:33:14.483Z,121.20
2019-04-10T20:35:54.554Z,120.90
2019-04-10T20:38:34.905Z,116.50
2019-04-10T20:41:14.773Z,112.80
2019-04-10T20:43:55.386Z,115.67
2019-04-10T20:46:36.021Z,123.43
2019-04-10T20:49:16.295Z,114.90
2019-04-10T20:51:56.196Z,129.77
2019-04-10T20:54:37.101Z,116.23
2019-04-10T20:57:17.513Z,116.23
2019-04-10T20:59:57.742Z,114.47
2019-04-10T21:02:38.297Z,112.43
2019-04-10T21:05:19.766Z,107.03
2019-04-10T21:07:59.934Z,114.53
2019-04-10T21:10:40.881Z,114.40
2019-04-10T21:13:22.079Z,112.00
2019-04-10T21:16:02.968Z,106.60
2019-04-10T21:18:44.218Z,104.37
2019-04-10T21:21:24.646Z,100.57
2019-04-10T21:24:04.867Z,95.73
2019-04-10T21:26:44.889Z,95.70
2019-04-10T21:29:44.366Z,99.33
2019-04-10T21:35:29.317Z,88.73
2019-04-10T21:38:09.313Z,85.03
2019-04-10T21:40:51.812Z,86.30
2019-04-10T21:43:32.009Z,83.83
2019-04-10T21:46:12.299Z,84.50
2019-04-10T21:48:51.987Z,82.33
2019-04-10T21:51:33.477Z,84.20
2019-04-10T21:54:14.028Z,82.70
2019-04-10T21:56:55.503Z,83.23
2019-04-10T21:59:35.286Z,84.47
2019-04-10T22:02:15.590Z,83.97
2019-04-10T22:04:55.809Z,82.47
2019-04-10T22:07:55.185Z,79.90
2019-04-10T22:10:40.026Z,81.87
2019-04-10T22:13:20.109Z,83.13
2019-04-10T22:16:01.689Z,82.07
2019-04-10T22:18:41.605Z,85.40
2019-04-10T22:21:22.768Z,81.07
2019-04-10T22:24:03.053Z,81.07
2019-04-10T22:26:42.878Z,83.37
2019-04-10T22:29:23.093Z,80.87
2019-04-10T22:32:04.130Z,76.90
2019-04-10T22:34:45.011Z,78.90
2019-04-10T22:37:25.796Z,83.40
2019-04-10T22:40:06.632Z,81.03
2019-04-10T22:42:48.193Z,81.10
2019-04-10T22:45:29.325Z,82.33
2019-04-10T22:48:10.895Z,81.87
2019-04-10T22:50:39.714Z,88.17
2019-04-10T22:53:26.837Z,85.53
2019-04-10T22:56:07.258Z,85.60
2019-04-10T22:58:47.302Z,84.57
2019-04-10T23:01:27.557Z,88.40
2019-04-10T23:04:08.024Z,86.60
2019-04-10T23:06:49.310Z,98.77
2019-04-10T23:09:30.610Z,96.43
2019-04-10T23:12:10.589Z,98.57
2019-04-10T23:14:51.149Z,93.57
2019-04-10T23:17:32.544Z,93.97
2019-04-10T23:20:12.924Z,94.73
2019-04-10T23:22:52.957Z,95.93
2019-04-10T23:25:34.225Z,93.73
2019-04-10T23:31:27.864Z,89.70
2019-04-10T23:34:08.389Z,91.07
2019-04-10T23:36:48.654Z,84.97
2019-04-10T23:39:16.362Z,86.60
2019-04-10T23:42:04.881Z,85.47
2019-04-10T23:44:53.248Z,85.87
2019-04-10T23:47:34.086Z,84.00
2019-04-10T23:50:15.099Z,81.47
2019-04-10T23:52:54.051Z,83.97
2019-04-10T23:55:41.944Z,81.10
2019-04-10T23:58:24.223Z,85.53
